Bookmark and Share
Track history (hours):
 

Statendam

Operator: Holland America Line

Last reported at 2014-Apr-18 10:00 UTC. Time now 2014-Apr-19 00:15 UTC.
Position N 27°06' W 133°42'.

Type: Passenger vessel. MMSI: 244078000.

Wind from 050 at 18 knots

Waves 1.5 meters (5 feet), 3 second period

Barometer 1018.0 mb
Air temperature 17.0 ° C
Visibility: greater than 5.4 NM
Dewpoint 13.5 ° C
Water temperature 18.0 ° C

NotesDate/timePositionNaut miles runAvg speedWind from/ knotsBaromVisibWave heightAir tempDewpointWater temp
2014-Apr-18 10:00N 27°06' W 133°42'35616.2 050 / 181018.0 5.4 1.517.013.518.0
2014-Apr-17 12:00N 29°12' W 127°24'16016.4
2014-Apr-17 02:15N 30°12' W 124°33'7916.4
2014-Apr-16 21:26N 30°39' W 123°08'1616.6
2014-Apr-16 20:28N 30°45' W 122°50'1516.5
2014-Apr-16 19:33N 30°51' W 122°34'1616.4
2014-Apr-16 18:33N 30°56' W 122°16'1616.2
2014-Apr-16 17:33N 31°02' W 121°58'3816.3
2014-Apr-16 15:12N 31°15' W 121°16'1116.4
2014-Apr-16 14:32N 31°19' W 121°04'1616.5
2014-Apr-16 13:33N 31°25' W 120°47'1816.6
2014-Apr-16 12:29N 31°31' W 120°27'1616.7
2014-Apr-16 11:33N 31°37' W 120°10'1424.1
2014-Apr-16 11:00N 31°36' W 119°54'716.0 320 / 371012.010.8 2.014.014.017.0
2014-Apr-16 10:34N 31°43' W 119°51'1716.5
2014-Apr-16 09:33N 31°48' W 119°33'1716.9
2014-Apr-16 08:34N 31°54' W 119°15'1717.0
2014-Apr-16 07:34N 32°00' W 118°56'1717.2
2014-Apr-16 06:34N 32°06' W 118°37'1515.4
2014-Apr-16 05:33N 32°12' W 118°20'1515.0
2014-Apr-16 04:33N 32°17' W 118°03'1413.8
2014-Apr-16 03:33N 32°22' W 117°48'1615.9
2014-Apr-16 02:33N 32°28' W 117°30'1414.1
2014-Apr-16 01:33N 32°34' W 117°15'1010.0
2014-Apr-16 00:33N 32°43' W 117°11'0 0.3
2014-Apr-15 23:31N 32°43' W 117°10'0 0.0
2014-Apr-15 22:23N 32°43' W 117°10'0 0.0
2014-Apr-15 21:32N 32°43' W 117°10'0 0.0
2014-Apr-15 20:29N 32°43' W 117°10'0 0.0
2014-Apr-15 19:31N 32°43' W 117°10'0 0.0
2014-Apr-15 18:32N 32°43' W 117°10'0 0.0
2014-Apr-15 17:31N 32°43' W 117°10'0 0.0
2014-Apr-15 16:32N 32°43' W 117°10'0 0.0
2014-Apr-15 15:32N 32°43' W 117°10'0 0.0
2014-Apr-15 14:32N 32°43' W 117°10'0 0.0
2014-Apr-15 12:32N 32°43' W 117°10'3 2.6
2014-Apr-15 11:34N 32°43' W 117°13'1111.3
2014-Apr-15 10:34N 32°31' W 117°13'1514.6
2014-Apr-15 09:34N 32°17' W 117°10'1312.9
2014-Apr-15 08:34N 32°05' W 117°06'1414.1
2014-Apr-15 07:34N 31°51' W 117°01'1615.5
2014-Apr-15 06:34N 31°36' W 116°57'1515.4
2014-Apr-15 05:34N 31°21' W 116°53'3115.5
2014-Apr-15 03:34N 30°51' W 116°44'1716.8
2014-Apr-15 02:31N 30°34' W 116°39'1717.3
2014-Apr-15 01:34N 30°18' W 116°34'1717.3
2014-Apr-15 00:34N 30°01' W 116°29'1717.2
2014-Apr-14 23:34N 29°44' W 116°24'1717.3
2014-Apr-14 22:34N 29°28' W 116°20'30818.6
2014-Apr-14 06:00N 25°12' W 113°06'4916.2 320 / 381014.010.8 1.522.722.417.0
2014-Apr-14 03:00N 24°36' W 112°30'20817.3 310 / 261013.710.8 1.517.7 18.0
2014-Apr-13 15:00N 22°30' W 109°30'11615.6 320 / 191012.8 5.4 1.024.923.422.0
2014-Apr-13 07:33N 21°33' W 107°40'1716.8
2014-Apr-13 06:33N 21°25' W 107°25'1424.6
2014-Apr-13 06:00N 21°18' W 107°12'4 7.6 280 / 91012.010.8 0.523.523.522.0
2014-Apr-13 05:30N 21°17' W 107°08'1516.0
2014-Apr-13 04:33N 21°09' W 106°54'2215.7
2014-Apr-13 03:11N 20°59' W 106°34'632.3
2014-Apr-13 03:00N 20°54' W 106°30'511.5 280 / 101011.210.8 0.524.724.025.0
2014-Apr-13 02:31N 20°54' W 106°24'1515.5
2014-Apr-13 01:33N 20°47' W 106°10'1615.7
2014-Apr-13 00:33N 20°39' W 105°55'1515.1
2014-Apr-12 23:32N 20°35' W 105°39'1515.5
2014-Apr-12 22:33N 20°37' W 105°23'8 8.3
2014-Apr-12 21:32N 20°39' W 105°15'0 0.0
2014-Apr-12 20:32N 20°39' W 105°15'0 0.0
2014-Apr-12 19:32N 20°39' W 105°15'0 0.0
2014-Apr-12 18:32N 20°39' W 105°15'0 0.0
2014-Apr-12 17:32N 20°39' W 105°15'0 0.0
2014-Apr-12 16:32N 20°39' W 105°15'0 0.0
2014-Apr-12 15:32N 20°39' W 105°15'0 0.0
2014-Apr-12 14:32N 20°39' W 105°15'0 0.0
2014-Apr-12 13:32N 20°39' W 105°15'0 0.0
2014-Apr-12 12:33N 20°39' W 105°15'6 5.7
2014-Apr-12 11:33N 20°37' W 105°20'1515.5
2014-Apr-12 10:33N 20°35' W 105°37'1212.5
2014-Apr-12 09:34N 20°27' W 105°47'4311.9
2014-Apr-12 06:00N 19°48' W 105°30'165 6.9 320 / 251012.010.8 1.023.023.022.0
2014-Apr-11 06:00N 17°54' W 103°24'6215.5 310 / 281014.010.8 1.025.025.025.0
2014-Apr-11 02:00N 17°30' W 102°24'24115.1 270 / 251012.010.8 2.027.024.127.0
2014-Apr-10 10:00N 16°00' W 098°30'10815.5 320 / 131013.010.8 3.027.526.829.0
2014-Apr-10 03:00N 15°30' W 096°42'   290 / 321012.310.8 3.028.324.928.0

Dump ship's entire track history

sailing weather and tide predictions

Statendam — PHSG — position and weather